sensor_id;sensor_type;location;lat;lon;timestamp;pressure;altitude;pressure_sealevel;temperature;humidity
83563;BME280;73535;52.500;13.482;2024-03-02T00:00:01;100180.69;;;19.58;53.19
83563;BME280;73535;52.500;13.482;2024-03-02T00:02:34;100176.22;;;19.59;53.32
83563;BME280;73535;52.500;13.482;2024-03-02T00:04:59;100176.22;;;19.59;53.60
83563;BME280;73535;52.500;13.482;2024-03-02T00:07:24;100170.03;;;19.58;53.38
83563;BME280;73535;52.500;13.482;2024-03-02T00:09:53;100171.69;;;19.59;53.33
83563;BME280;73535;52.500;13.482;2024-03-02T00:12:18;100165.53;;;19.59;53.19
83563;BME280;73535;52.500;13.482;2024-03-02T00:14:45;100165.69;;;19.57;53.21
83563;BME280;73535;52.500;13.482;2024-03-02T00:17:21;100160.22;;;19.59;53.07
83563;BME280;73535;52.500;13.482;2024-03-02T00:19:49;100163.69;;;19.59;53.13
83563;BME280;73535;52.500;13.482;2024-03-02T00:22:14;100152.22;;;19.59;52.97
83563;BME280;73535;52.500;13.482;2024-03-02T00:24:39;100146.88;;;19.59;53.21
83563;BME280;73535;52.500;13.482;2024-03-02T00:27:05;100153.22;;;19.58;53.12
83563;BME280;73535;52.500;13.482;2024-03-02T00:29:32;100153.03;;;19.59;53.11
83563;BME280;73535;52.500;13.482;2024-03-02T00:31:58;100162.03;;;19.58;53.21
83563;BME280;73535;52.500;13.482;2024-03-02T00:34:23;100151.38;;;19.58;53.19
83563;BME280;73535;52.500;13.482;2024-03-02T00:36:48;100146.22;;;19.57;52.98
83563;BME280;73535;52.500;13.482;2024-03-02T00:39:17;100151.38;;;19.58;53.25
83563;BME280;73535;52.500;13.482;2024-03-02T00:41:42;100154.69;;;19.60;53.08
83563;BME280;73535;52.500;13.482;2024-03-02T00:44:11;100148.72;;;19.58;53.07
83563;BME280;73535;52.500;13.482;2024-03-02T00:46:38;100150.34;;;19.59;53.06
83563;BME280;73535;52.500;13.482;2024-03-02T00:49:05;100149.72;;;19.57;53.11
83563;BME280;73535;52.500;13.482;2024-03-02T00:51:32;100145.22;;;19.58;52.98
83563;BME280;73535;52.500;13.482;2024-03-02T00:54:01;100151.38;;;19.58;53.09
83563;BME280;73535;52.500;13.482;2024-03-02T00:56:29;100150.53;;;19.58;52.90
83563;BME280;73535;52.500;13.482;2024-03-02T00:58:54;100153.38;;;19.56;52.78
83563;BME280;73535;52.500;13.482;2024-03-02T01:01:20;100145.56;;;19.55;52.97
83563;BME280;73535;52.500;13.482;2024-03-02T01:03:45;100151.72;;;19.55;53.12
83563;BME280;73535;52.500;13.482;2024-03-02T01:06:10;100150.72;;;19.56;53.02
83563;BME280;73535;52.500;13.482;2024-03-02T01:08:36;100143.91;;;19.54;53.01
83563;BME280;73535;52.500;13.482;2024-03-02T01:11:02;100150.53;;;19.58;52.94
83563;BME280;73535;52.500;13.482;2024-03-02T01:13:27;100144.38;;;19.57;52.98
83563;BME280;73535;52.500;13.482;2024-03-02T01:15:53;100139.88;;;19.58;52.82
83563;BME280;73535;52.500;13.482;2024-03-02T01:18:18;100140.72;;;19.58;52.92
83563;BME280;73535;52.500;13.482;2024-03-02T01:20:43;100137.03;;;19.59;52.89
83563;BME280;73535;52.500;13.482;2024-03-02T01:23:08;100138.88;;;19.59;52.76
83563;BME280;73535;52.500;13.482;2024-03-02T01:25:34;100139.88;;;19.58;52.95
83563;BME280;73535;52.500;13.482;2024-03-02T01:28:00;100137.03;;;19.59;52.67
83563;BME280;73535;52.500;13.482;2024-03-02T01:30:25;100133.72;;;19.57;52.92
83563;BME280;73535;52.500;13.482;2024-03-02T01:32:51;100138.06;;;19.58;52.84
83563;BME280;73535;52.500;13.482;2024-03-02T01:35:16;100138.06;;;19.58;52.82
83563;BME280;73535;52.500;13.482;2024-03-02T01:37:41;100127.38;;;19.58;52.96
83563;BME280;73535;52.500;13.482;2024-03-02T01:40:07;100133.56;;;19.59;52.99
83563;BME280;73535;52.500;13.482;2024-03-02T01:42:40;100124.53;;;19.60;52.83
83563;BME280;73535;52.500;13.482;2024-03-02T01:45:06;100119.41;;;19.58;52.96
83563;BME280;73535;52.500;13.482;2024-03-02T01:47:32;100114.72;;;19.60;52.84
83563;BME280;73535;52.500;13.482;2024-03-02T01:49:58;100106.72;;;19.60;52.78
83563;BME280;73535;52.500;13.482;2024-03-02T01:52:23;100105.03;;;19.59;52.83
83563;BME280;73535;52.500;13.482;2024-03-02T01:54:48;100107.69;;;19.59;52.69
83563;BME280;73535;52.500;13.482;2024-03-02T01:57:14;100106.06;;;19.58;52.72
83563;BME280;73535;52.500;13.482;2024-03-02T01:59:39;100103.41;;;19.58;52.87
83563;BME280;73535;52.500;13.482;2024-03-02T02:02:04;100103.41;;;19.58;52.70
83563;BME280;73535;52.500;13.482;2024-03-02T02:04:29;100096.25;;;19.59;52.91
83563;BME280;73535;52.500;13.482;2024-03-02T02:06:55;100098.41;;;19.55;52.98
83563;BME280;73535;52.500;13.482;2024-03-02T02:09:21;100098.06;;;19.58;52.96
83563;BME280;73535;52.500;13.482;2024-03-02T02:11:46;100094.22;;;19.61;52.87
83563;BME280;73535;52.500;13.482;2024-03-02T02:14:11;100087.22;;;19.60;52.77
83563;BME280;73535;52.500;13.482;2024-03-02T02:16:36;100089.03;;;19.59;52.97
83563;BME280;73535;52.500;13.482;2024-03-02T02:19:02;100085.72;;;19.57;52.90
83563;BME280;73535;52.500;13.482;2024-03-02T02:21:28;100092.06;;;19.56;52.93
83563;BME280;73535;52.500;13.482;2024-03-02T02:23:53;100087.75;;;19.55;53.08
83563;BME280;73535;52.500;13.482;2024-03-02T02:26:18;100084.06;;;19.56;52.89
83563;BME280;73535;52.500;13.482;2024-03-02T02:28:43;100082.06;;;19.58;53.03
83563;BME280;73535;52.500;13.482;2024-03-02T02:31:12;100079.56;;;19.57;53.12
83563;BME280;73535;52.500;13.482;2024-03-02T02:33:39;100084.75;;;19.58;53.00
83563;BME280;73535;52.500;13.482;2024-03-02T02:36:05;100082.44;;;19.55;53.02
83563;BME280;73535;52.500;13.482;2024-03-02T02:38:30;100093.72;;;19.57;52.85
83563;BME280;73535;52.500;13.482;2024-03-02T02:40:57;100096.41;;;19.57;52.87
83563;BME280;73535;52.500;13.482;2024-03-02T02:43:22;100089.41;;;19.56;52.82
83563;BME280;73535;52.500;13.482;2024-03-02T02:45:47;100088.41;;;19.57;53.07
83563;BME280;73535;52.500;13.482;2024-03-02T02:48:12;100087.41;;;19.58;52.94
83563;BME280;73535;52.500;13.482;2024-03-02T02:50:38;100096.41;;;19.57;52.91
83563;BME280;73535;52.500;13.482;2024-03-02T02:53:03;100099.91;;;19.58;52.94
83563;BME280;73535;52.500;13.482;2024-03-02T02:55:28;100098.22;;;19.57;53.05
83563;BME280;73535;52.500;13.482;2024-03-02T02:57:53;100096.41;;;19.57;52.84
83563;BME280;73535;52.500;13.482;2024-03-02T03:00:19;100100.72;;;19.58;52.90
83563;BME280;73535;52.500;13.482;2024-03-02T03:02:47;100098.06;;;19.58;52.81
83563;BME280;73535;52.500;13.482;2024-03-02T03:05:14;100102.38;;;19.59;52.92
83563;BME280;73535;52.500;13.482;2024-03-02T03:07:39;100097.41;;;19.56;52.94
83563;BME280;73535;52.500;13.482;2024-03-02T03:10:05;100107.06;;;19.57;52.77
83563;BME280;73535;52.500;13.482;2024-03-02T03:12:31;100098.91;;;19.59;52.70
83563;BME280;73535;52.500;13.482;2024-03-02T03:14:57;100093.72;;;19.57;52.82
83563;BME280;73535;52.500;13.482;2024-03-02T03:17:22;100092.75;;;19.58;52.87
83563;BME280;73535;52.500;13.482;2024-03-02T03:19:48;100090.72;;;19.60;52.70
83563;BME280;73535;52.500;13.482;2024-03-02T03:22:13;100089.88;;;19.60;52.77
83563;BME280;73535;52.500;13.482;2024-03-02T03:24:39;100092.53;;;19.60;52.68
83563;BME280;73535;52.500;13.482;2024-03-02T03:27:04;100089.88;;;19.60;52.77
83563;BME280;73535;52.500;13.482;2024-03-02T03:29:29;100089.88;;;19.60;52.77
83563;BME280;73535;52.500;13.482;2024-03-02T03:31:54;100098.50;;;19.62;52.60
83563;BME280;73535;52.500;13.482;2024-03-02T03:34:20;100088.88;;;19.61;52.88
83563;BME280;73535;52.500;13.482;2024-03-02T03:36:45;100089.88;;;19.60;52.77
83563;BME280;73535;52.500;13.482;2024-03-02T03:39:10;100082.06;;;19.58;52.70
83563;BME280;73535;52.500;13.482;2024-03-02T03:41:35;100092.38;;;19.61;52.85
83563;BME280;73535;52.500;13.482;2024-03-02T03:44:01;100090.72;;;19.60;52.75
83563;BME280;73535;52.500;13.482;2024-03-02T03:46:26;100083.72;;;19.59;52.57
83563;BME280;73535;52.500;13.482;2024-03-02T03:48:51;100096.03;;;19.60;52.63
83563;BME280;73535;52.500;13.482;2024-03-02T03:51:16;100089.03;;;19.59;52.77
83563;BME280;73535;52.500;13.482;2024-03-02T03:53:42;100087.41;;;19.58;52.62
83563;BME280;73535;52.500;13.482;2024-03-02T03:56:07;100092.75;;;19.58;52.69
83563;BME280;73535;52.500;13.482;2024-03-02T03:58:32;100095.56;;;19.57;52.81
83563;BME280;73535;52.500;13.482;2024-03-02T04:00:57;100096.03;;;19.60;52.59
83563;BME280;73535;52.500;13.482;2024-03-02T04:03:23;100097.72;;;19.61;52.83
83563;BME280;73535;52.500;13.482;2024-03-02T04:05:48;100105.03;;;19.59;52.79
83563;BME280;73535;52.500;13.482;2024-03-02T04:08:13;100095.56;;;19.57;52.84
83563;BME280;73535;52.500;13.482;2024-03-02T04:10:38;100103.41;;;19.58;52.86
83563;BME280;73535;52.500;13.482;2024-03-02T04:13:05;100098.22;;;19.57;52.93
83563;BME280;73535;52.500;13.482;2024-03-02T04:15:30;100104.59;;;19.56;52.86
83563;BME280;73535;52.500;13.482;2024-03-02T04:17:55;100098.22;;;19.57;52.87
83563;BME280;73535;52.500;13.482;2024-03-02T04:20:21;100094.56;;;19.58;52.71
83563;BME280;73535;52.500;13.482;2024-03-02T04:22:46;100102.72;;;19.56;52.91
83563;BME280;73535;52.500;13.482;2024-03-02T04:25:11;100101.72;;;19.57;52.83
83563;BME280;73535;52.500;13.482;2024-03-02T04:27:36;100097.41;;;19.56;52.84
83563;BME280;73535;52.500;13.482;2024-03-02T04:30:02;100098.78;;;19.52;52.96
83563;BME280;73535;52.500;13.482;2024-03-02T04:32:28;100095.09;;;19.53;53.04
83563;BME280;73535;52.500;13.482;2024-03-02T04:34:54;100102.09;;;19.54;52.98
83563;BME280;73535;52.500;13.482;2024-03-02T04:37:19;100105.38;;;19.56;52.94
83563;BME280;73535;52.500;13.482;2024-03-02T04:39:44;100100.41;;;19.53;52.94
83563;BME280;73535;52.500;13.482;2024-03-02T04:42:10;100105.38;;;19.56;52.87
83563;BME280;73535;52.500;13.482;2024-03-02T04:44:35;100103.75;;;19.55;52.93
83563;BME280;73535;52.500;13.482;2024-03-02T04:47:00;100113.75;;;19.53;52.63
83563;BME280;73535;52.500;13.482;2024-03-02T04:49:26;100110.72;;;19.56;52.82
83563;BME280;73535;52.500;13.482;2024-03-02T04:51:51;100118.91;;;19.55;52.56
83563;BME280;73535;52.500;13.482;2024-03-02T04:54:16;100135.06;;;19.53;53.09
83563;BME280;73535;52.500;13.482;2024-03-02T04:56:41;100128.75;;;19.54;52.78
83563;BME280;73535;52.500;13.482;2024-03-02T04:59:10;100133.22;;;19.54;52.67
83563;BME280;73535;52.500;13.482;2024-03-02T05:01:35;100128.75;;;19.54;52.93
83563;BME280;73535;52.500;13.482;2024-03-02T05:04:00;100130.56;;;19.54;52.84
83563;BME280;73535;52.500;13.482;2024-03-02T05:06:25;100127.75;;;19.55;52.86
83563;BME280;73535;52.500;13.482;2024-03-02T05:08:51;100133.22;;;19.54;52.93
83563;BME280;73535;52.500;13.482;2024-03-02T05:11:16;100133.06;;;19.55;53.14
83563;BME280;73535;52.500;13.482;2024-03-02T05:14:15;100140.03;;;19.56;52.80
83563;BME280;73535;52.500;13.482;2024-03-02T05:16:40;100143.53;;;19.57;53.19
83563;BME280;73535;52.500;13.482;2024-03-02T05:19:07;100148.03;;;19.56;52.93
83563;BME280;73535;52.500;13.482;2024-03-02T05:21:33;100148.03;;;19.56;52.79
83563;BME280;73535;52.500;13.482;2024-03-02T05:23:59;100154.22;;;19.57;52.92
83563;BME280;73535;52.500;13.482;2024-03-02T05:26:24;100154.03;;;19.58;52.75
83563;BME280;73535;52.500;13.482;2024-03-02T05:28:49;100164.72;;;19.58;52.82
83563;BME280;73535;52.500;13.482;2024-03-02T05:31:15;100170.69;;;19.60;52.71
83563;BME280;73535;52.500;13.482;2024-03-02T05:33:40;100173.34;;;19.60;52.68
83563;BME280;73535;52.500;13.482;2024-03-02T05:36:06;100168.84;;;19.61;52.57
83563;BME280;73535;52.500;13.482;2024-03-02T05:38:31;100169.84;;;19.60;52.77
83563;BME280;73535;52.500;13.482;2024-03-02T05:40:57;100166.19;;;19.61;52.90
83563;BME280;73535;52.500;13.482;2024-03-02T05:43:22;100165.34;;;19.60;52.85
83563;BME280;73535;52.500;13.482;2024-03-02T05:45:47;100167.19;;;19.60;52.70
83563;BME280;73535;52.500;13.482;2024-03-02T05:48:12;100175.53;;;19.57;52.79
83563;BME280;73535;52.500;13.482;2024-03-02T05:50:38;100177.19;;;19.58;52.83
83563;BME280;73535;52.500;13.482;2024-03-02T05:53:03;100179.69;;;19.59;52.90
83563;BME280;73535;52.500;13.482;2024-03-02T05:55:28;100187.03;;;19.57;52.93
83563;BME280;73535;52.500;13.482;2024-03-02T05:57:54;100188.84;;;19.57;52.95
83563;BME280;73535;52.500;13.482;2024-03-02T06:00:31;100181.69;;;19.57;52.92
83563;BME280;73535;52.500;13.482;2024-03-02T06:02:57;100181.88;;;19.56;52.90
83563;BME280;73535;52.500;13.482;2024-03-02T06:05:22;100182.69;;;19.56;52.78
83563;BME280;73535;52.500;13.482;2024-03-02T06:07:47;100189.69;;;19.57;52.98
83563;BME280;73535;52.500;13.482;2024-03-02T06:10:12;100199.72;;;19.55;53.17
83563;BME280;73535;52.500;13.482;2024-03-02T06:12:38;100189.06;;;19.55;52.96
83563;BME280;73535;52.500;13.482;2024-03-02T06:15:03;100191.72;;;19.55;52.95
83563;BME280;73535;52.500;13.482;2024-03-02T06:17:29;100197.03;;;19.55;52.91
83563;BME280;73535;52.500;13.482;2024-03-02T06:19:54;100183.72;;;19.55;53.08
83563;BME280;73535;52.500;13.482;2024-03-02T06:22:19;100182.03;;;19.54;52.97
83563;BME280;73535;52.500;13.482;2024-03-02T06:24:50;100189.06;;;19.55;52.94
83563;BME280;73535;52.500;13.482;2024-03-02T06:27:15;100180.38;;;19.53;52.97
83563;BME280;73535;52.500;13.482;2024-03-02T06:29:40;100183.22;;;19.52;52.89
83563;BME280;73535;52.500;13.482;2024-03-02T06:32:05;100185.06;;;19.51;53.10
83563;BME280;73535;52.500;13.482;2024-03-02T06:34:31;100182.25;;;19.53;53.14
83563;BME280;73535;52.500;13.482;2024-03-02T06:36:56;100189.41;;;19.52;52.96
83563;BME280;73535;52.500;13.482;2024-03-02T06:39:21;100192.06;;;19.52;52.96
83563;BME280;73535;52.500;13.482;2024-03-02T06:41:46;100187.72;;;19.51;53.16
83563;BME280;73535;52.500;13.482;2024-03-02T06:44:14;100196.38;;;19.53;53.06
83563;BME280;73535;52.500;13.482;2024-03-02T06:46:40;100201.69;;;19.53;53.14
83563;BME280;73535;52.500;13.482;2024-03-02T06:49:05;100200.91;;;19.53;53.16
83563;BME280;73535;52.500;13.482;2024-03-02T06:51:30;100212.38;;;19.53;52.92
83563;BME280;73535;52.500;13.482;2024-03-02T06:53:55;100205.03;;;19.55;52.94
83563;BME280;73535;52.500;13.482;2024-03-02T06:56:21;100206.03;;;19.54;53.01
83563;BME280;73535;52.500;13.482;2024-03-02T06:58:46;100207.72;;;19.55;53.07
83563;BME280;73535;52.500;13.482;2024-03-02T07:01:12;100198.81;;;19.63;54.44
83563;BME280;73535;52.500;13.482;2024-03-02T07:03:37;100204.34;;;19.61;53.99
83563;BME280;73535;52.500;13.482;2024-03-02T07:06:04;100216.19;;;19.59;53.86
83563;BME280;73535;52.500;13.482;2024-03-02T07:08:29;100209.00;;;19.59;54.63
83563;BME280;73535;52.500;13.482;2024-03-02T07:10:54;100220.28;;;19.69;54.85
83563;BME280;73535;52.500;13.482;2024-03-02T07:13:20;100217.91;;;19.74;54.98
83563;BME280;73535;52.500;13.482;2024-03-02T07:15:45;100215.25;;;19.74;55.36
83563;BME280;73535;52.500;13.482;2024-03-02T07:18:39;100216.56;;;19.79;55.46
83563;BME280;73535;52.500;13.482;2024-03-02T07:21:10;100224.22;;;19.82;55.36
83563;BME280;73535;52.500;13.482;2024-03-02T07:23:35;100226.88;;;19.82;55.31
83563;BME280;73535;52.500;13.482;2024-03-02T07:26:01;100225.69;;;19.84;55.35
83563;BME280;73535;52.500;13.482;2024-03-02T07:28:27;100230.19;;;19.84;55.35
83563;BME280;73535;52.500;13.482;2024-03-02T07:31:02;100238.84;;;19.86;55.25
83563;BME280;73535;52.500;13.482;2024-03-02T07:33:29;100233.50;;;19.86;55.53
83563;BME280;73535;52.500;13.482;2024-03-02T07:35:54;100238.69;;;19.87;55.22
83563;BME280;73535;52.500;13.482;2024-03-02T07:38:20;100245.84;;;19.87;55.34
83563;BME280;73535;52.500;13.482;2024-03-02T07:40:46;100253.66;;;19.88;55.39
83563;BME280;73535;52.500;13.482;2024-03-02T07:43:12;100264.16;;;19.90;55.49
83563;BME280;73535;52.500;13.482;2024-03-02T07:45:37;100265.16;;;19.89;55.33
83563;BME280;73535;52.500;13.482;2024-03-02T07:48:02;100263.31;;;19.89;55.52
83563;BME280;73535;52.500;13.482;2024-03-02T07:50:29;100272.16;;;19.90;55.38
83563;BME280;73535;52.500;13.482;2024-03-02T07:52:55;100275.81;;;19.89;55.29
83563;BME280;73535;52.500;13.482;2024-03-02T07:55:21;100278.50;;;19.89;55.55
83563;BME280;73535;52.500;13.482;2024-03-02T07:57:46;100274.81;;;19.90;55.28
83563;BME280;73535;52.500;13.482;2024-03-02T08:00:11;100282.19;;;19.88;55.72
83563;BME280;73535;52.500;13.482;2024-03-02T08:02:37;100276.66;;;19.89;55.66
83563;BME280;73535;52.500;13.482;2024-03-02T08:05:02;100282.00;;;19.89;55.81
83563;BME280;73535;52.500;13.482;2024-03-02T08:07:27;100287.16;;;19.91;55.54
83563;BME280;73535;52.500;13.482;2024-03-02T08:09:53;100287.97;;;19.91;55.35
83563;BME280;73535;52.500;13.482;2024-03-02T08:12:18;100287.31;;;19.89;55.49
83563;BME280;73535;52.500;13.482;2024-03-02T08:14:44;100288.16;;;19.90;55.48
83563;BME280;73535;52.500;13.482;2024-03-02T08:17:10;100292.50;;;19.91;55.20
83563;BME280;73535;52.500;13.482;2024-03-02T08:19:36;100297.66;;;19.92;55.05
83563;BME280;73535;52.500;13.482;2024-03-02T08:22:02;100299.00;;;19.88;55.21
83563;BME280;73535;52.500;13.482;2024-03-02T08:24:27;100301.31;;;19.91;54.98
83563;BME280;73535;52.500;13.482;2024-03-02T08:26:52;100306.47;;;19.93;55.10
83563;BME280;73535;52.500;13.482;2024-03-02T08:29:18;100305.84;;;19.91;55.12
83563;BME280;73535;52.500;13.482;2024-03-02T08:31:43;100307.81;;;19.89;55.04
83563;BME280;73535;52.500;13.482;2024-03-02T08:34:08;100309.50;;;19.90;54.97
83563;BME280;73535;52.500;13.482;2024-03-02T08:36:34;100308.16;;;19.94;55.07
83563;BME280;73535;52.500;13.482;2024-03-02T08:38:59;100304.31;;;19.96;54.70
83563;BME280;73535;52.500;13.482;2024-03-02T08:41:24;100304.66;;;19.93;54.89
83563;BME280;73535;52.500;13.482;2024-03-02T08:43:49;100309.78;;;19.95;54.68
83563;BME280;73535;52.500;13.482;2024-03-02T08:46:15;100305.50;;;19.94;54.78
83563;BME280;73535;52.500;13.482;2024-03-02T08:48:40;100310.00;;;19.93;54.68
83563;BME280;73535;52.500;13.482;2024-03-02T08:51:05;100303.81;;;19.93;54.88
83563;BME280;73535;52.500;13.482;2024-03-02T08:53:33;100306.47;;;19.93;54.58
83563;BME280;73535;52.500;13.482;2024-03-02T08:55:58;100311.63;;;19.94;54.78
83563;BME280;73535;52.500;13.482;2024-03-02T08:58:23;100309.78;;;19.95;54.72
83563;BME280;73535;52.500;13.482;2024-03-02T09:00:48;100307.13;;;19.95;54.67
83563;BME280;73535;52.500;13.482;2024-03-02T09:03:14;100317.63;;;19.96;54.74
83563;BME280;73535;52.500;13.482;2024-03-02T09:05:39;100317.44;;;19.98;54.67
83563;BME280;73535;52.500;13.482;2024-03-02T09:08:05;100318.28;;;19.98;54.48
83563;BME280;73535;52.500;13.482;2024-03-02T09:10:30;100325.28;;;19.99;54.46
83563;BME280;73535;52.500;13.482;2024-03-02T09:12:55;100326.09;;;20.00;54.42
83563;BME280;73535;52.500;13.482;2024-03-02T09:15:21;100326.09;;;20.00;54.28
83563;BME280;73535;52.500;13.482;2024-03-02T09:17:46;100331.28;;;20.01;54.37
83563;BME280;73535;52.500;13.482;2024-03-02T09:20:11;100328.59;;;20.01;54.46
83563;BME280;73535;52.500;13.482;2024-03-02T09:22:36;100330.44;;;20.01;54.39
83563;BME280;73535;52.500;13.482;2024-03-02T09:25:02;100327.41;;;20.04;54.41
83563;BME280;73535;52.500;13.482;2024-03-02T09:27:27;100325.75;;;20.03;54.33
83563;BME280;73535;52.500;13.482;2024-03-02T09:29:52;100328.59;;;20.01;54.34
83563;BME280;73535;52.500;13.482;2024-03-02T09:32:18;100330.44;;;20.01;54.25
83563;BME280;73535;52.500;13.482;2024-03-02T09:34:43;100328.41;;;20.03;53.83
83563;BME280;73535;52.500;13.482;2024-03-02T09:37:08;100330.28;;;20.02;54.26
83563;BME280;73535;52.500;13.482;2024-03-02T09:39:33;100329.25;;;20.03;54.42
83563;BME280;73535;52.500;13.482;2024-03-02T09:41:59;100323.91;;;20.03;54.18
83563;BME280;73535;52.500;13.482;2024-03-02T09:44:25;100329.09;;;20.05;54.08
83563;BME280;73535;52.500;13.482;2024-03-02T09:46:51;100327.25;;;20.05;54.13
83563;BME280;73535;52.500;13.482;2024-03-02T09:49:17;100328.91;;;20.06;54.33
83563;BME280;73535;52.500;13.482;2024-03-02T09:51:48;100324.59;;;20.05;54.11
83563;BME280;73535;52.500;13.482;2024-03-02T09:54:15;100325.41;;;20.06;54.09
83563;BME280;73535;52.500;13.482;2024-03-02T09:56:40;100327.72;;;20.09;54.11
83563;BME280;73535;52.500;13.482;2024-03-02T09:59:05;100328.75;;;20.08;53.97
83563;BME280;73535;52.500;13.482;2024-03-02T10:01:31;100328.75;;;20.08;53.85
83563;BME280;73535;52.500;13.482;2024-03-02T10:03:59;100333.88;;;20.09;54.11
83563;BME280;73535;52.500;13.482;2024-03-02T10:06:26;100336.75;;;20.08;54.02
83563;BME280;73535;52.500;13.482;2024-03-02T10:08:52;100333.06;;;20.09;53.84
83563;BME280;73535;52.500;13.482;2024-03-02T10:11:33;100340.22;;;20.08;54.15
83563;BME280;73535;52.500;13.482;2024-03-02T10:14:10;100345.56;;;20.08;54.00
83563;BME280;73535;52.500;13.482;2024-03-02T10:16:41;100342.72;;;20.10;53.79
83563;BME280;73535;52.500;13.482;2024-03-02T10:21:42;100336.56;;;20.09;54.03
83563;BME280;73535;52.500;13.482;2024-03-02T10:24:08;100341.06;;;20.09;53.98
83563;BME280;73535;52.500;13.482;2024-03-02T10:26:33;100335.25;;;20.05;53.89
83563;BME280;73535;52.500;13.482;2024-03-02T10:28:58;100338.75;;;20.06;54.13
83563;BME280;73535;52.500;13.482;2024-03-02T10:31:25;100333.72;;;20.11;54.04
83563;BME280;73535;52.500;13.482;2024-03-02T10:33:53;100325.72;;;20.11;53.91
83563;BME280;73535;52.500;13.482;2024-03-02T10:36:19;100319.72;;;20.09;53.94
83563;BME280;73535;52.500;13.482;2024-03-02T10:38:44;100325.25;;;20.07;54.01
83563;BME280;73535;52.500;13.482;2024-03-02T10:41:11;100328.56;;;20.09;54.03
83563;BME280;73535;52.500;13.482;2024-03-02T10:43:37;100329.19;;;20.11;53.63
83563;BME280;73535;52.500;13.482;2024-03-02T10:46:02;100323.41;;;20.08;53.79
83563;BME280;73535;52.500;13.482;2024-03-02T10:48:28;100324.88;;;20.10;53.79
83563;BME280;73535;52.500;13.482;2024-03-02T10:50:53;100324.88;;;20.10;53.86
83563;BME280;73535;52.500;13.482;2024-03-02T10:53:18;100322.38;;;20.09;54.00
83563;BME280;73535;52.500;13.482;2024-03-02T10:55:43;100330.38;;;20.09;53.86
83563;BME280;73535;52.500;13.482;2024-03-02T10:58:11;100321.38;;;20.10;53.52
83563;BME280;73535;52.500;13.482;2024-03-02T11:00:38;100321.38;;;20.10;53.76
83563;BME280;73535;52.500;13.482;2024-03-02T11:03:07;100319.38;;;20.12;53.73
83563;BME280;73535;52.500;13.482;2024-03-02T11:05:36;100314.88;;;20.12;53.77
83563;BME280;73535;52.500;13.482;2024-03-02T11:08:07;100318.53;;;20.11;53.94
83563;BME280;73535;52.500;13.482;2024-03-02T11:10:51;100319.38;;;20.12;53.64
83563;BME280;73535;52.500;13.482;2024-03-02T11:13:22;100321.38;;;20.10;53.45
83563;BME280;73535;52.500;13.482;2024-03-02T11:15:51;100327.22;;;20.13;53.38
83563;BME280;73535;52.500;13.482;2024-03-02T11:18:18;100321.03;;;20.13;53.72
83563;BME280;73535;52.500;13.482;2024-03-02T11:20:44;100315.69;;;20.13;53.65
83563;BME280;73535;52.500;13.482;2024-03-02T11:23:09;100311.19;;;20.13;53.45
83563;BME280;73535;52.500;13.482;2024-03-02T11:25:35;100311.34;;;20.12;53.75
83563;BME280;73535;52.500;13.482;2024-03-02T11:28:07;100312.03;;;20.14;53.39
83563;BME280;73535;52.500;13.482;2024-03-02T11:33:00;100318.66;;;20.18;53.44
83563;BME280;73535;52.500;13.482;2024-03-02T11:35:26;100322.34;;;20.17;53.44
83563;BME280;73535;52.500;13.482;2024-03-02T11:37:52;100324.47;;;20.21;53.49
83563;BME280;73535;52.500;13.482;2024-03-02T11:40:24;100323.00;;;20.19;53.37
83563;BME280;73535;52.500;13.482;2024-03-02T11:42:50;100320.13;;;20.20;53.25
83563;BME280;73535;52.500;13.482;2024-03-02T11:45:25;100315.63;;;20.21;53.39
83563;BME280;73535;52.500;13.482;2024-03-02T11:47:53;100318.31;;;20.21;53.27
83563;BME280;73535;52.500;13.482;2024-03-02T11:52:55;100321.47;;;20.24;53.22
83563;BME280;73535;52.500;13.482;2024-03-02T11:55:21;100318.63;;;20.26;53.22
83563;BME280;73535;52.500;13.482;2024-03-02T11:57:46;100320.50;;;20.25;53.07
83563;BME280;73535;52.500;13.482;2024-03-02T12:00:18;100319.16;;;20.21;53.56
83563;BME280;73535;52.500;13.482;2024-03-02T12:02:43;100323.66;;;20.21;53.35
83563;BME280;73535;52.500;13.482;2024-03-02T12:05:13;100319.78;;;20.23;53.29
83563;BME280;73535;52.500;13.482;2024-03-02T12:07:38;100315.28;;;20.24;53.29
83563;BME280;73535;52.500;13.482;2024-03-02T12:10:03;100319.78;;;20.23;53.07
83563;BME280;73535;52.500;13.482;2024-03-02T12:12:30;100320.31;;;20.27;52.89
83563;BME280;73535;52.500;13.482;2024-03-02T12:14:55;100321.97;;;20.28;52.96
83563;BME280;73535;52.500;13.482;2024-03-02T12:17:22;100314.31;;;20.25;53.07
83563;BME280;73535;52.500;13.482;2024-03-02T12:19:47;100303.28;;;20.28;53.19
83563;BME280;73535;52.500;13.482;2024-03-02T12:22:13;100314.97;;;20.27;53.20
83563;BME280;73535;52.500;13.482;2024-03-02T12:24:38;100315.97;;;20.26;53.26
83563;BME280;73535;52.500;13.482;2024-03-02T12:27:07;100307.97;;;20.26;53.20
83563;BME280;73535;52.500;13.482;2024-03-02T12:29:33;100304.13;;;20.28;53.21
83563;BME280;73535;52.500;13.482;2024-03-02T12:31:59;100297.44;;;20.24;53.56
83563;BME280;73535;52.500;13.482;2024-03-02T12:34:24;100301.81;;;20.25;53.11
83563;BME280;73535;52.500;13.482;2024-03-02T12:36:49;100297.44;;;20.24;53.44
83563;BME280;73535;52.500;13.482;2024-03-02T12:39:18;100295.78;;;20.23;53.30
83563;BME280;73535;52.500;13.482;2024-03-02T12:41:43;100290.13;;;20.26;53.17